sensor_id;sensor_type;location;lat;lon;timestamp;P1;durP1;ratioP1;P2;durP2;ratioP2
23573;SDS011;11965;53.640;10.050;2023-09-07T00:01:27;7.52;;;7.52;;
23573;SDS011;11965;53.640;10.050;2023-09-07T00:03:54;7.10;;;7.10;;
23573;SDS011;11965;53.640;10.050;2023-09-07T00:06:22;7.04;;;7.04;;
23573;SDS011;11965;53.640;10.050;2023-09-07T00:08:49;7.12;;;7.12;;
23573;SDS011;11965;53.640;10.050;2023-09-07T00:11:16;7.02;;;7.02;;
23573;SDS011;11965;53.640;10.050;2023-09-07T00:13:43;6.91;;;6.91;;
23573;SDS011;11965;53.640;10.050;2023-09-07T00:16:09;6.95;;;6.95;;
23573;SDS011;11965;53.640;10.050;2023-09-07T00:18:36;6.66;;;6.66;;
23573;SDS011;11965;53.640;10.050;2023-09-07T00:21:03;6.88;;;6.88;;
23573;SDS011;11965;53.640;10.050;2023-09-07T00:23:31;6.66;;;6.66;;
23573;SDS011;11965;53.640;10.050;2023-09-07T00:25:58;6.48;;;6.48;;
23573;SDS011;11965;53.640;10.050;2023-09-07T00:28:25;6.85;;;6.85;;
23573;SDS011;11965;53.640;10.050;2023-09-07T00:30:52;6.92;;;6.92;;
23573;SDS011;11965;53.640;10.050;2023-09-07T00:33:18;6.77;;;6.77;;
23573;SDS011;11965;53.640;10.050;2023-09-07T00:35:45;6.88;;;6.88;;
23573;SDS011;11965;53.640;10.050;2023-09-07T00:38:12;6.73;;;6.73;;
23573;SDS011;11965;53.640;10.050;2023-09-07T00:40:43;7.07;;;7.07;;
23573;SDS011;11965;53.640;10.050;2023-09-07T00:43:10;6.85;;;6.85;;
23573;SDS011;11965;53.640;10.050;2023-09-07T00:45:37;6.62;;;6.62;;
23573;SDS011;11965;53.640;10.050;2023-09-07T00:48:05;6.36;;;6.36;;
23573;SDS011;11965;53.640;10.050;2023-09-07T00:50:32;6.97;;;6.97;;
23573;SDS011;11965;53.640;10.050;2023-09-07T00:52:59;6.55;;;6.55;;
23573;SDS011;11965;53.640;10.050;2023-09-07T00:55:28;6.54;;;6.54;;
23573;SDS011;11965;53.640;10.050;2023-09-07T00:57:59;6.86;;;6.86;;
23573;SDS011;11965;53.640;10.050;2023-09-07T01:00:28;6.68;;;6.68;;
23573;SDS011;11965;53.640;10.050;2023-09-07T01:02:55;6.87;;;6.87;;
23573;SDS011;11965;53.640;10.050;2023-09-07T01:05:24;6.76;;;6.76;;
23573;SDS011;11965;53.640;10.050;2023-09-07T01:07:58;7.20;;;7.20;;
23573;SDS011;11965;53.640;10.050;2023-09-07T01:10:34;6.99;;;6.99;;
23573;SDS011;11965;53.640;10.050;2023-09-07T01:13:03;6.99;;;6.99;;
23573;SDS011;11965;53.640;10.050;2023-09-07T01:15:30;6.62;;;6.62;;
23573;SDS011;11965;53.640;10.050;2023-09-07T01:17:57;6.60;;;6.60;;
23573;SDS011;11965;53.640;10.050;2023-09-07T01:20:25;6.80;;;6.80;;
23573;SDS011;11965;53.640;10.050;2023-09-07T01:22:54;6.66;;;6.66;;
23573;SDS011;11965;53.640;10.050;2023-09-07T01:27:49;7.28;;;7.28;;
23573;SDS011;11965;53.640;10.050;2023-09-07T01:30:17;6.56;;;6.56;;
23573;SDS011;11965;53.640;10.050;2023-09-07T01:32:44;6.57;;;6.57;;
23573;SDS011;11965;53.640;10.050;2023-09-07T01:35:11;6.53;;;6.53;;
23573;SDS011;11965;53.640;10.050;2023-09-07T01:37:43;6.97;;;6.97;;
23573;SDS011;11965;53.640;10.050;2023-09-07T01:40:11;6.74;;;6.74;;
23573;SDS011;11965;53.640;10.050;2023-09-07T01:42:38;6.44;;;6.44;;
23573;SDS011;11965;53.640;10.050;2023-09-07T01:45:05;6.38;;;6.38;;
23573;SDS011;11965;53.640;10.050;2023-09-07T01:47:34;6.41;;;6.41;;
23573;SDS011;11965;53.640;10.050;2023-09-07T01:50:01;6.46;;;6.46;;
23573;SDS011;11965;53.640;10.050;2023-09-07T01:52:28;6.39;;;6.39;;
23573;SDS011;11965;53.640;10.050;2023-09-07T01:54:56;6.85;;;6.85;;
23573;SDS011;11965;53.640;10.050;2023-09-07T01:57:24;6.51;;;6.51;;
23573;SDS011;11965;53.640;10.050;2023-09-07T01:59:51;6.41;;;6.41;;
23573;SDS011;11965;53.640;10.050;2023-09-07T02:02:18;6.48;;;6.48;;
23573;SDS011;11965;53.640;10.050;2023-09-07T02:04:45;6.55;;;6.55;;
23573;SDS011;11965;53.640;10.050;2023-09-07T02:07:12;6.60;;;6.60;;
23573;SDS011;11965;53.640;10.050;2023-09-07T02:09:40;6.69;;;6.69;;
23573;SDS011;11965;53.640;10.050;2023-09-07T02:12:06;6.53;;;6.53;;
23573;SDS011;11965;53.640;10.050;2023-09-07T02:14:35;6.49;;;6.49;;
23573;SDS011;11965;53.640;10.050;2023-09-07T02:17:02;6.71;;;6.71;;
23573;SDS011;11965;53.640;10.050;2023-09-07T02:19:29;6.37;;;6.37;;
23573;SDS011;11965;53.640;10.050;2023-09-07T02:21:55;6.29;;;6.29;;
23573;SDS011;11965;53.640;10.050;2023-09-07T02:24:22;6.44;;;6.44;;
23573;SDS011;11965;53.640;10.050;2023-09-07T02:26:49;6.57;;;6.57;;
23573;SDS011;11965;53.640;10.050;2023-09-07T02:29:16;6.63;;;6.63;;
23573;SDS011;11965;53.640;10.050;2023-09-07T02:31:47;6.61;;;6.61;;
23573;SDS011;11965;53.640;10.050;2023-09-07T02:34:13;6.53;;;6.53;;
23573;SDS011;11965;53.640;10.050;2023-09-07T02:36:40;6.86;;;6.86;;
23573;SDS011;11965;53.640;10.050;2023-09-07T02:39:07;6.88;;;6.88;;
23573;SDS011;11965;53.640;10.050;2023-09-07T02:41:35;6.55;;;6.55;;
23573;SDS011;11965;53.640;10.050;2023-09-07T02:44:01;6.67;;;6.67;;
23573;SDS011;11965;53.640;10.050;2023-09-07T02:46:29;6.65;;;6.65;;
23573;SDS011;11965;53.640;10.050;2023-09-07T02:48:57;7.33;;;7.33;;
23573;SDS011;11965;53.640;10.050;2023-09-07T02:51:25;7.07;;;7.07;;
23573;SDS011;11965;53.640;10.050;2023-09-07T02:53:53;6.96;;;6.96;;
23573;SDS011;11965;53.640;10.050;2023-09-07T02:56:23;6.97;;;6.97;;
23573;SDS011;11965;53.640;10.050;2023-09-07T02:58:51;6.77;;;6.77;;
23573;SDS011;11965;53.640;10.050;2023-09-07T03:01:18;6.61;;;6.61;;
23573;SDS011;11965;53.640;10.050;2023-09-07T03:03:46;6.90;;;6.90;;
23573;SDS011;11965;53.640;10.050;2023-09-07T03:06:18;7.40;;;7.40;;
23573;SDS011;11965;53.640;10.050;2023-09-07T03:08:48;6.74;;;6.74;;
23573;SDS011;11965;53.640;10.050;2023-09-07T03:11:15;6.96;;;6.96;;
23573;SDS011;11965;53.640;10.050;2023-09-07T03:13:43;6.74;;;6.74;;
23573;SDS011;11965;53.640;10.050;2023-09-07T03:16:10;6.67;;;6.67;;
23573;SDS011;11965;53.640;10.050;2023-09-07T03:18:37;7.19;;;7.19;;
23573;SDS011;11965;53.640;10.050;2023-09-07T03:21:04;7.07;;;7.07;;
23573;SDS011;11965;53.640;10.050;2023-09-07T03:23:33;6.74;;;6.74;;
23573;SDS011;11965;53.640;10.050;2023-09-07T03:26:01;6.97;;;6.97;;
23573;SDS011;11965;53.640;10.050;2023-09-07T03:28:29;6.82;;;6.82;;
23573;SDS011;11965;53.640;10.050;2023-09-07T03:30:55;6.98;;;6.98;;
23573;SDS011;11965;53.640;10.050;2023-09-07T03:33:22;7.47;;;7.47;;
23573;SDS011;11965;53.640;10.050;2023-09-07T03:35:50;7.08;;;7.08;;
23573;SDS011;11965;53.640;10.050;2023-09-07T03:38:17;7.23;;;7.23;;
23573;SDS011;11965;53.640;10.050;2023-09-07T03:40:46;7.22;;;7.22;;
23573;SDS011;11965;53.640;10.050;2023-09-07T03:43:14;7.84;;;7.84;;
23573;SDS011;11965;53.640;10.050;2023-09-07T03:45:40;7.69;;;7.69;;
23573;SDS011;11965;53.640;10.050;2023-09-07T03:48:07;7.12;;;7.12;;
23573;SDS011;11965;53.640;10.050;2023-09-07T03:50:35;7.54;;;7.54;;
23573;SDS011;11965;53.640;10.050;2023-09-07T03:53:02;7.72;;;7.72;;
23573;SDS011;11965;53.640;10.050;2023-09-07T03:55:29;7.09;;;7.09;;
23573;SDS011;11965;53.640;10.050;2023-09-07T03:57:57;7.40;;;7.40;;
23573;SDS011;11965;53.640;10.050;2023-09-07T04:00:24;7.84;;;7.84;;
23573;SDS011;11965;53.640;10.050;2023-09-07T04:02:51;8.15;;;8.15;;
23573;SDS011;11965;53.640;10.050;2023-09-07T04:05:18;7.31;;;7.31;;
23573;SDS011;11965;53.640;10.050;2023-09-07T04:07:45;7.38;;;7.38;;
23573;SDS011;11965;53.640;10.050;2023-09-07T04:10:12;7.64;;;7.64;;
23573;SDS011;11965;53.640;10.050;2023-09-07T04:12:39;7.75;;;7.75;;
23573;SDS011;11965;53.640;10.050;2023-09-07T04:15:08;8.11;;;8.11;;
23573;SDS011;11965;53.640;10.050;2023-09-07T04:17:36;8.13;;;8.13;;
23573;SDS011;11965;53.640;10.050;2023-09-07T04:20:06;8.05;;;8.05;;
23573;SDS011;11965;53.640;10.050;2023-09-07T04:22:34;7.76;;;7.76;;
23573;SDS011;11965;53.640;10.050;2023-09-07T04:25:01;7.85;;;7.85;;
23573;SDS011;11965;53.640;10.050;2023-09-07T04:27:30;7.69;;;7.69;;
23573;SDS011;11965;53.640;10.050;2023-09-07T04:29:57;7.87;;;7.87;;
23573;SDS011;11965;53.640;10.050;2023-09-07T04:32:26;8.04;;;8.04;;
23573;SDS011;11965;53.640;10.050;2023-09-07T04:34:54;8.20;;;8.20;;
23573;SDS011;11965;53.640;10.050;2023-09-07T04:37:22;8.67;;;8.67;;
23573;SDS011;11965;53.640;10.050;2023-09-07T04:39:50;8.52;;;8.52;;
23573;SDS011;11965;53.640;10.050;2023-09-07T04:42:18;8.44;;;8.44;;
23573;SDS011;11965;53.640;10.050;2023-09-07T04:44:46;8.41;;;8.41;;
23573;SDS011;11965;53.640;10.050;2023-09-07T04:47:14;8.58;;;8.58;;
23573;SDS011;11965;53.640;10.050;2023-09-07T04:49:48;8.51;;;8.51;;
23573;SDS011;11965;53.640;10.050;2023-09-07T04:52:18;8.71;;;8.71;;
23573;SDS011;11965;53.640;10.050;2023-09-07T04:54:45;8.04;;;8.04;;
23573;SDS011;11965;53.640;10.050;2023-09-07T04:57:13;7.67;;;7.67;;
23573;SDS011;11965;53.640;10.050;2023-09-07T04:59:42;7.99;;;7.99;;
23573;SDS011;11965;53.640;10.050;2023-09-07T05:02:09;7.86;;;7.86;;
23573;SDS011;11965;53.640;10.050;2023-09-07T05:04:37;8.19;;;8.19;;
23573;SDS011;11965;53.640;10.050;2023-09-07T05:07:05;8.32;;;8.32;;
23573;SDS011;11965;53.640;10.050;2023-09-07T05:09:33;8.44;;;8.44;;
23573;SDS011;11965;53.640;10.050;2023-09-07T05:12:00;8.22;;;8.22;;
23573;SDS011;11965;53.640;10.050;2023-09-07T05:14:27;8.28;;;8.28;;
23573;SDS011;11965;53.640;10.050;2023-09-07T05:16:55;8.06;;;8.06;;
23573;SDS011;11965;53.640;10.050;2023-09-07T05:19:23;8.85;;;8.85;;
23573;SDS011;11965;53.640;10.050;2023-09-07T05:21:50;8.73;;;8.73;;
23573;SDS011;11965;53.640;10.050;2023-09-07T05:24:18;8.79;;;8.79;;
23573;SDS011;11965;53.640;10.050;2023-09-07T05:26:45;8.65;;;8.65;;
23573;SDS011;11965;53.640;10.050;2023-09-07T05:29:12;8.65;;;8.65;;
23573;SDS011;11965;53.640;10.050;2023-09-07T05:31:39;8.78;;;8.78;;
23573;SDS011;11965;53.640;10.050;2023-09-07T05:34:06;8.33;;;8.33;;
23573;SDS011;11965;53.640;10.050;2023-09-07T05:36:33;8.76;;;8.76;;
23573;SDS011;11965;53.640;10.050;2023-09-07T05:39:00;8.67;;;8.67;;
23573;SDS011;11965;53.640;10.050;2023-09-07T05:41:29;8.70;;;8.70;;
23573;SDS011;11965;53.640;10.050;2023-09-07T05:43:56;8.96;;;8.96;;
23573;SDS011;11965;53.640;10.050;2023-09-07T05:46:23;9.07;;;9.07;;
23573;SDS011;11965;53.640;10.050;2023-09-07T05:48:50;8.78;;;8.78;;
23573;SDS011;11965;53.640;10.050;2023-09-07T05:51:17;8.34;;;8.34;;
23573;SDS011;11965;53.640;10.050;2023-09-07T05:53:44;8.42;;;8.42;;
23573;SDS011;11965;53.640;10.050;2023-09-07T05:56:11;8.58;;;8.58;;
23573;SDS011;11965;53.640;10.050;2023-09-07T05:58:39;8.74;;;8.74;;
23573;SDS011;11965;53.640;10.050;2023-09-07T06:01:06;8.66;;;8.66;;
23573;SDS011;11965;53.640;10.050;2023-09-07T06:03:33;8.86;;;8.86;;
23573;SDS011;11965;53.640;10.050;2023-09-07T06:06:01;9.00;;;9.00;;
23573;SDS011;11965;53.640;10.050;2023-09-07T06:08:28;8.28;;;8.28;;
23573;SDS011;11965;53.640;10.050;2023-09-07T06:10:55;9.28;;;9.28;;
23573;SDS011;11965;53.640;10.050;2023-09-07T06:13:22;8.86;;;8.86;;
23573;SDS011;11965;53.640;10.050;2023-09-07T06:15:50;8.68;;;8.68;;
23573;SDS011;11965;53.640;10.050;2023-09-07T06:18:18;8.87;;;8.87;;
23573;SDS011;11965;53.640;10.050;2023-09-07T06:20:44;8.97;;;8.97;;
23573;SDS011;11965;53.640;10.050;2023-09-07T06:23:12;9.26;;;9.26;;
23573;SDS011;11965;53.640;10.050;2023-09-07T06:25:39;8.68;;;8.68;;
23573;SDS011;11965;53.640;10.050;2023-09-07T06:28:06;8.82;;;8.82;;
23573;SDS011;11965;53.640;10.050;2023-09-07T06:30:33;8.63;;;8.63;;
23573;SDS011;11965;53.640;10.050;2023-09-07T06:33:01;8.66;;;8.66;;
23573;SDS011;11965;53.640;10.050;2023-09-07T06:35:28;9.07;;;9.07;;
23573;SDS011;11965;53.640;10.050;2023-09-07T06:37:55;8.43;;;8.43;;
23573;SDS011;11965;53.640;10.050;2023-09-07T06:40:24;8.62;;;8.62;;
23573;SDS011;11965;53.640;10.050;2023-09-07T06:42:53;8.70;;;8.70;;
23573;SDS011;11965;53.640;10.050;2023-09-07T06:45:23;8.76;;;8.76;;
23573;SDS011;11965;53.640;10.050;2023-09-07T06:47:50;8.82;;;8.82;;
23573;SDS011;11965;53.640;10.050;2023-09-07T06:50:22;9.16;;;9.16;;
23573;SDS011;11965;53.640;10.050;2023-09-07T06:52:49;8.65;;;8.65;;
23573;SDS011;11965;53.640;10.050;2023-09-07T06:55:16;8.77;;;8.77;;
23573;SDS011;11965;53.640;10.050;2023-09-07T06:57:44;8.19;;;8.19;;
23573;SDS011;11965;53.640;10.050;2023-09-07T07:00:12;8.85;;;8.85;;
23573;SDS011;11965;53.640;10.050;2023-09-07T07:02:39;8.68;;;8.68;;
23573;SDS011;11965;53.640;10.050;2023-09-07T07:05:07;8.83;;;8.83;;
23573;SDS011;11965;53.640;10.050;2023-09-07T07:07:36;8.63;;;8.63;;
23573;SDS011;11965;53.640;10.050;2023-09-07T07:10:03;8.37;;;8.37;;
23573;SDS011;11965;53.640;10.050;2023-09-07T07:12:31;8.29;;;8.29;;
23573;SDS011;11965;53.640;10.050;2023-09-07T07:15:00;8.62;;;8.62;;
23573;SDS011;11965;53.640;10.050;2023-09-07T07:17:27;8.68;;;8.68;;
23573;SDS011;11965;53.640;10.050;2023-09-07T07:19:54;8.35;;;8.35;;
23573;SDS011;11965;53.640;10.050;2023-09-07T07:22:21;8.31;;;8.31;;
23573;SDS011;11965;53.640;10.050;2023-09-07T07:24:50;8.25;;;8.25;;
23573;SDS011;11965;53.640;10.050;2023-09-07T07:27:19;8.10;;;8.10;;
23573;SDS011;11965;53.640;10.050;2023-09-07T07:29:46;8.44;;;8.44;;
23573;SDS011;11965;53.640;10.050;2023-09-07T07:32:13;8.08;;;8.08;;
23573;SDS011;11965;53.640;10.050;2023-09-07T07:34:41;8.49;;;8.49;;
23573;SDS011;11965;53.640;10.050;2023-09-07T07:37:08;8.68;;;8.68;;
23573;SDS011;11965;53.640;10.050;2023-09-07T07:39:35;8.15;;;8.15;;
23573;SDS011;11965;53.640;10.050;2023-09-07T07:42:04;8.30;;;8.30;;
23573;SDS011;11965;53.640;10.050;2023-09-07T07:44:31;7.97;;;7.97;;
23573;SDS011;11965;53.640;10.050;2023-09-07T07:46:58;8.13;;;8.13;;
23573;SDS011;11965;53.640;10.050;2023-09-07T07:49:25;7.82;;;7.82;;
23573;SDS011;11965;53.640;10.050;2023-09-07T07:51:53;8.40;;;8.40;;
23573;SDS011;11965;53.640;10.050;2023-09-07T07:54:20;7.88;;;7.88;;
23573;SDS011;11965;53.640;10.050;2023-09-07T07:56:48;8.19;;;8.19;;
23573;SDS011;11965;53.640;10.050;2023-09-07T07:59:16;8.07;;;8.07;;
23573;SDS011;11965;53.640;10.050;2023-09-07T08:01:43;8.15;;;8.15;;
23573;SDS011;11965;53.640;10.050;2023-09-07T08:04:10;7.97;;;7.97;;
23573;SDS011;11965;53.640;10.050;2023-09-07T08:06:37;8.03;;;8.03;;
23573;SDS011;11965;53.640;10.050;2023-09-07T08:09:04;8.19;;;8.19;;
23573;SDS011;11965;53.640;10.050;2023-09-07T08:11:31;8.33;;;8.33;;
23573;SDS011;11965;53.640;10.050;2023-09-07T08:13:58;8.29;;;8.29;;
23573;SDS011;11965;53.640;10.050;2023-09-07T08:16:26;7.89;;;7.89;;
23573;SDS011;11965;53.640;10.050;2023-09-07T08:18:53;8.13;;;8.13;;
23573;SDS011;11965;53.640;10.050;2023-09-07T08:21:20;8.40;;;8.40;;
23573;SDS011;11965;53.640;10.050;2023-09-07T08:23:47;7.80;;;7.80;;
23573;SDS011;11965;53.640;10.050;2023-09-07T08:26:15;8.16;;;8.16;;
23573;SDS011;11965;53.640;10.050;2023-09-07T08:28:44;8.21;;;8.21;;
23573;SDS011;11965;53.640;10.050;2023-09-07T08:31:11;8.34;;;8.34;;
23573;SDS011;11965;53.640;10.050;2023-09-07T08:33:41;8.28;;;8.28;;
23573;SDS011;11965;53.640;10.050;2023-09-07T08:36:07;8.01;;;8.01;;
23573;SDS011;11965;53.640;10.050;2023-09-07T08:38:34;8.13;;;8.13;;
23573;SDS011;11965;53.640;10.050;2023-09-07T08:41:02;7.85;;;7.85;;
23573;SDS011;11965;53.640;10.050;2023-09-07T08:43:32;7.93;;;7.93;;
23573;SDS011;11965;53.640;10.050;2023-09-07T08:46:04;7.86;;;7.86;;
23573;SDS011;11965;53.640;10.050;2023-09-07T08:48:37;8.04;;;8.04;;
23573;SDS011;11965;53.640;10.050;2023-09-07T08:51:06;8.31;;;8.31;;
23573;SDS011;11965;53.640;10.050;2023-09-07T08:53:37;7.43;;;7.43;;
23573;SDS011;11965;53.640;10.050;2023-09-07T08:56:06;8.27;;;8.27;;
23573;SDS011;11965;53.640;10.050;2023-09-07T08:58:35;7.85;;;7.85;;
23573;SDS011;11965;53.640;10.050;2023-09-07T09:01:02;7.95;;;7.95;;
23573;SDS011;11965;53.640;10.050;2023-09-07T09:03:29;7.27;;;7.27;;
23573;SDS011;11965;53.640;10.050;2023-09-07T09:05:56;7.42;;;7.42;;
23573;SDS011;11965;53.640;10.050;2023-09-07T09:08:24;7.63;;;7.63;;
23573;SDS011;11965;53.640;10.050;2023-09-07T09:10:58;7.22;;;7.22;;
23573;SDS011;11965;53.640;10.050;2023-09-07T09:13:29;7.83;;;7.83;;
23573;SDS011;11965;53.640;10.050;2023-09-07T09:15:58;7.50;;;7.50;;
23573;SDS011;11965;53.640;10.050;2023-09-07T09:18:26;7.52;;;7.52;;
23573;SDS011;11965;53.640;10.050;2023-09-07T09:20:54;7.19;;;7.19;;
23573;SDS011;11965;53.640;10.050;2023-09-07T09:23:21;7.14;;;7.14;;
23573;SDS011;11965;53.640;10.050;2023-09-07T09:25:49;7.13;;;7.13;;
23573;SDS011;11965;53.640;10.050;2023-09-07T09:28:16;7.14;;;7.14;;
23573;SDS011;11965;53.640;10.050;2023-09-07T09:30:43;7.22;;;7.22;;
23573;SDS011;11965;53.640;10.050;2023-09-07T09:33:10;6.65;;;6.65;;
23573;SDS011;11965;53.640;10.050;2023-09-07T09:35:37;6.86;;;6.86;;
23573;SDS011;11965;53.640;10.050;2023-09-07T09:38:04;6.55;;;6.55;;
23573;SDS011;11965;53.640;10.050;2023-09-07T09:40:31;6.92;;;6.92;;
23573;SDS011;11965;53.640;10.050;2023-09-07T09:43:02;6.73;;;6.73;;
23573;SDS011;11965;53.640;10.050;2023-09-07T09:45:29;6.58;;;6.58;;
23573;SDS011;11965;53.640;10.050;2023-09-07T09:48:00;6.81;;;6.81;;
23573;SDS011;11965;53.640;10.050;2023-09-07T09:50:30;6.45;;;6.45;;
23573;SDS011;11965;53.640;10.050;2023-09-07T09:52:58;7.03;;;7.03;;
23573;SDS011;11965;53.640;10.050;2023-09-07T09:55:26;6.79;;;6.79;;
23573;SDS011;11965;53.640;10.050;2023-09-07T09:57:56;6.74;;;6.74;;
23573;SDS011;11965;53.640;10.050;2023-09-07T10:00:25;6.94;;;6.94;;
23573;SDS011;11965;53.640;10.050;2023-09-07T10:02:59;6.66;;;6.66;;
23573;SDS011;11965;53.640;10.050;2023-09-07T10:05:29;6.63;;;6.63;;
23573;SDS011;11965;53.640;10.050;2023-09-07T10:08:02;6.78;;;6.78;;
23573;SDS011;11965;53.640;10.050;2023-09-07T10:10:34;6.68;;;6.68;;
23573;SDS011;11965;53.640;10.050;2023-09-07T10:13:02;6.51;;;6.51;;
23573;SDS011;11965;53.640;10.050;2023-09-07T10:15:31;6.61;;;6.61;;
23573;SDS011;11965;53.640;10.050;2023-09-07T10:18:09;6.47;;;6.47;;
23573;SDS011;11965;53.640;10.050;2023-09-07T10:20:50;6.27;;;6.27;;
23573;SDS011;11965;53.640;10.050;2023-09-07T10:23:21;6.54;;;6.54;;
23573;SDS011;11965;53.640;10.050;2023-09-07T10:25:49;6.41;;;6.41;;
23573;SDS011;11965;53.640;10.050;2023-09-07T10:28:20;6.16;;;6.16;;
23573;SDS011;11965;53.640;10.050;2023-09-07T10:30:59;5.91;;;5.91;;
23573;SDS011;11965;53.640;10.050;2023-09-07T10:33:28;5.83;;;5.83;;
23573;SDS011;11965;53.640;10.050;2023-09-07T10:35:57;5.91;;;5.91;;
23573;SDS011;11965;53.640;10.050;2023-09-07T10:38:24;5.49;;;5.49;;
23573;SDS011;11965;53.640;10.050;2023-09-07T10:40:55;5.56;;;5.56;;
23573;SDS011;11965;53.640;10.050;2023-09-07T10:43:24;6.02;;;6.02;;
23573;SDS011;11965;53.640;10.050;2023-09-07T10:45:51;6.22;;;6.22;;
23573;SDS011;11965;53.640;10.050;2023-09-07T10:48:20;6.07;;;6.07;;
23573;SDS011;11965;53.640;10.050;2023-09-07T10:50:47;5.84;;;5.84;;
23573;SDS011;11965;53.640;10.050;2023-09-07T10:53:23;5.92;;;5.92;;
23573;SDS011;11965;53.640;10.050;2023-09-07T10:55:52;5.85;;;5.85;;
23573;SDS011;11965;53.640;10.050;2023-09-07T10:58:24;6.64;;;6.64;;
23573;SDS011;11965;53.640;10.050;2023-09-07T11:00:53;6.05;;;6.05;;
23573;SDS011;11965;53.640;10.050;2023-09-07T11:03:21;5.86;;;5.86;;
23573;SDS011;11965;53.640;10.050;2023-09-07T11:05:48;5.70;;;5.70;;
23573;SDS011;11965;53.640;10.050;2023-09-07T11:08:17;5.44;;;5.44;;
23573;SDS011;11965;53.640;10.050;2023-09-07T11:10:45;5.66;;;5.66;;
23573;SDS011;11965;53.640;10.050;2023-09-07T11:13:12;5.51;;;5.51;;
23573;SDS011;11965;53.640;10.050;2023-09-07T11:15:39;5.42;;;5.42;;
23573;SDS011;11965;53.640;10.050;2023-09-07T11:18:06;5.54;;;5.54;;
23573;SDS011;11965;53.640;10.050;2023-09-07T11:20:35;5.55;;;5.55;;
23573;SDS011;11965;53.640;10.050;2023-09-07T11:23:05;5.67;;;5.67;;
23573;SDS011;11965;53.640;10.050;2023-09-07T11:25:35;5.06;;;5.06;;
23573;SDS011;11965;53.640;10.050;2023-09-07T11:28:03;5.13;;;5.13;;
23573;SDS011;11965;53.640;10.050;2023-09-07T11:30:31;6.09;;;6.09;;
23573;SDS011;11965;53.640;10.050;2023-09-07T11:33:02;5.63;;;5.63;;
23573;SDS011;11965;53.640;10.050;2023-09-07T11:35:30;5.54;;;5.54;;
23573;SDS011;11965;53.640;10.050;2023-09-07T11:38:00;5.41;;;5.41;;
23573;SDS011;11965;53.640;10.050;2023-09-07T11:40:29;5.42;;;5.42;;
23573;SDS011;11965;53.640;10.050;2023-09-07T11:42:56;5.13;;;5.13;;
23573;SDS011;11965;53.640;10.050;2023-09-07T11:45:23;5.18;;;5.18;;
23573;SDS011;11965;53.640;10.050;2023-09-07T11:47:51;5.63;;;5.63;;
23573;SDS011;11965;53.640;10.050;2023-09-07T11:50:18;5.29;;;5.29;;
23573;SDS011;11965;53.640;10.050;2023-09-07T11:52:46;4.82;;;4.82;;
23573;SDS011;11965;53.640;10.050;2023-09-07T11:55:14;4.80;;;4.80;;
23573;SDS011;11965;53.640;10.050;2023-09-07T11:57:41;4.91;;;4.91;;
23573;SDS011;11965;53.640;10.050;2023-09-07T12:00:08;4.95;;;4.95;;
23573;SDS011;11965;53.640;10.050;2023-09-07T12:02:39;5.24;;;5.24;;
23573;SDS011;11965;53.640;10.050;2023-09-07T12:05:06;5.43;;;5.43;;
23573;SDS011;11965;53.640;10.050;2023-09-07T12:07:34;4.91;;;4.91;;
23573;SDS011;11965;53.640;10.050;2023-09-07T12:10:02;5.30;;;5.30;;
23573;SDS011;11965;53.640;10.050;2023-09-07T12:12:31;5.22;;;5.22;;
23573;SDS011;11965;53.640;10.050;2023-09-07T12:14:58;5.17;;;5.17;;
23573;SDS011;11965;53.640;10.050;2023-09-07T12:17:25;5.31;;;5.31;;
23573;SDS011;11965;53.640;10.050;2023-09-07T12:19:52;5.47;;;5.47;;
23573;SDS011;11965;53.640;10.050;2023-09-07T12:22:19;5.66;;;5.66;;
23573;SDS011;11965;53.640;10.050;2023-09-07T12:24:46;5.33;;;5.33;;
23573;SDS011;11965;53.640;10.050;2023-09-07T12:27:12;5.37;;;5.37;;
23573;SDS011;11965;53.640;10.050;2023-09-07T12:29:41;5.74;;;5.74;;
23573;SDS011;11965;53.640;10.050;2023-09-07T12:32:08;6.14;;;6.14;;
23573;SDS011;11965;53.640;10.050;2023-09-07T12:34:34;5.82;;;5.82;;
23573;SDS011;11965;53.640;10.050;2023-09-07T12:37:01;6.01;;;6.01;;
23573;SDS011;11965;53.640;10.050;2023-09-07T12:39:29;5.88;;;5.88;;
23573;SDS011;11965;53.640;10.050;2023-09-07T12:41:56;6.01;;;6.01;;
23573;SDS011;11965;53.640;10.050;2023-09-07T12:44:23;5.84;;;5.84;;
23573;SDS011;11965;53.640;10.050;2023-09-07T12:46:52;6.15;;;6.15;;
23573;SDS011;11965;53.640;10.050;2023-09-07T12:49:18;6.23;;;6.23;;
23573;SDS011;11965;53.640;10.050;2023-09-07T12:51:45;5.94;;;5.94;;
23573;SDS011;11965;53.640;10.050;2023-09-07T12:54:13;6.51;;;6.51;;
23573;SDS011;11965;53.640;10.050;2023-09-07T12:56:40;6.04;;;6.04;;
23573;SDS011;11965;53.640;10.050;2023-09-07T12:59:07;6.43;;;6.43;;
23573;SDS011;11965;53.640;10.050;2023-09-07T13:01:34;6.38;;;6.38;;
23573;SDS011;11965;53.640;10.050;2023-09-07T13:04:02;5.77;;;5.77;;
23573;SDS011;11965;53.640;10.050;2023-09-07T13:06:29;5.85;;;5.85;;
23573;SDS011;11965;53.640;10.050;2023-09-07T13:08:56;6.09;;;6.09;;
23573;SDS011;11965;53.640;10.050;2023-09-07T13:11:23;6.33;;;6.33;;
23573;SDS011;11965;53.640;10.050;2023-09-07T13:13:50;5.77;;;5.77;;
23573;SDS011;11965;53.640;10.050;2023-09-07T13:16:18;5.88;;;5.88;;
23573;SDS011;11965;53.640;10.050;2023-09-07T13:18:44;5.53;;;5.53;;
23573;SDS011;11965;53.640;10.050;2023-09-07T13:21:13;5.97;;;5.97;;
23573;SDS011;11965;53.640;10.050;2023-09-07T13:23:39;5.60;;;5.60;;
23573;SDS011;11965;53.640;10.050;2023-09-07T13:26:07;5.77;;;5.77;;
23573;SDS011;11965;53.640;10.050;2023-09-07T13:28:33;5.77;;;5.77;;
23573;SDS011;11965;53.640;10.050;2023-09-07T13:31:00;5.91;;;5.91;;
23573;SDS011;11965;53.640;10.050;2023-09-07T13:33:27;5.84;;;5.84;;
23573;SDS011;11965;53.640;10.050;2023-09-07T13:35:55;5.48;;;5.48;;
23573;SDS011;11965;53.640;10.050;2023-09-07T13:38:23;5.58;;;5.58;;
23573;SDS011;11965;53.640;10.050;2023-09-07T13:40:50;5.91;;;5.91;;
23573;SDS011;11965;53.640;10.050;2023-09-07T13:43:16;5.80;;;5.80;;
23573;SDS011;11965;53.640;10.050;2023-09-07T13:45:44;5.59;;;5.59;;
23573;SDS011;11965;53.640;10.050;2023-09-07T13:48:11;5.56;;;5.56;;
23573;SDS011;11965;53.640;10.050;2023-09-07T13:50:38;5.58;;;5.58;;
23573;SDS011;11965;53.640;10.050;2023-09-07T13:53:05;5.48;;;5.48;;
23573;SDS011;11965;53.640;10.050;2023-09-07T13:55:34;5.48;;;5.48;;
23573;SDS011;11965;53.640;10.050;2023-09-07T13:58:01;5.38;;;5.38;;
23573;SDS011;11965;53.640;10.050;2023-09-07T14:00:28;5.64;;;5.64;;
23573;SDS011;11965;53.640;10.050;2023-09-07T14:02:55;5.45;;;5.45;;
23573;SDS011;11965;53.640;10.050;2023-09-07T14:05:21;5.80;;;5.80;;
23573;SDS011;11965;53.640;10.050;2023-09-07T14:07:48;5.63;;;5.63;;
23573;SDS011;11965;53.640;10.050;2023-09-07T14:10:15;5.58;;;5.58;;
23573;SDS011;11965;53.640;10.050;2023-09-07T14:12:43;5.50;;;5.50;;
23573;SDS011;11965;53.640;10.050;2023-09-07T14:15:13;5.61;;;5.61;;
23573;SDS011;11965;53.640;10.050;2023-09-07T14:17:40;5.57;;;5.57;;
23573;SDS011;11965;53.640;10.050;2023-09-07T14:20:07;5.58;;;5.58;;
23573;SDS011;11965;53.640;10.050;2023-09-07T14:22:35;5.47;;;5.47;;
23573;SDS011;11965;53.640;10.050;2023-09-07T14:25:02;5.57;;;5.57;;
23573;SDS011;11965;53.640;10.050;2023-09-07T14:27:29;5.72;;;5.72;;
23573;SDS011;11965;53.640;10.050;2023-09-07T14:29:57;5.36;;;5.36;;
23573;SDS011;11965;53.640;10.050;2023-09-07T14:32:24;5.14;;;5.14;;
23573;SDS011;11965;53.640;10.050;2023-09-07T14:34:51;5.37;;;5.37;;
23573;SDS011;11965;53.640;10.050;2023-09-07T14:37:18;5.48;;;5.48;;
23573;SDS011;11965;53.640;10.050;2023-09-07T14:39:47;5.04;;;5.04;;